Terminal Aerodrome Forecast
Issued by NWS Sioux Falls, SD

Home | Current Version | Previous Version | Graphics & Text | Print | Product List | Glossary On
Versions: 1 2 3 4 5 6 7 8 9 10 11 12 13 14 15 16 17 18
000
FTUS43 KFSD 271120
TAFFSD
TAF
KFSD 271120Z 2712/2812 07022G30KT 6SM SHRA OVC009
     FM271500 07022G30KT P6SM SHRA OVC010
     FM272000 06017G25KT P6SM OVC012
     FM280600 06015G22KT P6SM SHRA OVC008
     FM281100 04013KT P6SM VCSH OVC008=

USA.gov is the U.S. government's official web portal to all federal, state and local government web resources and services.